Time;durP1;ratioP1;P1;durP2;ratioP2;P2;SDS_P1;SDS_P2;PMS_P1;PMS_P2;Temp;Humidity;BMP_temperature;BMP_pressure;BME280_temperature;BME280_humidity;BME280_pressure;Samples;Min_cycle;Max_cycle;Signal;HPM_P1;HPM_P2
2021/06/04 00:01:06;;;;;;;;;;;21.30;45.30;;;;;;500031;237;2184;-44
2021/06/04 00:03:07;;;;;;;;;;;21.30;45.30;;;;;;500217;237;1112;-44
2021/06/04 00:05:08;;;;;;;;;;;21.30;45.20;;;;;;500235;237;1158;-44
2021/06/04 00:07:09;;;;;;;;;;;21.40;45.30;;;;;;500225;237;1186;-44
2021/06/04 00:09:11;;;;;;;;;;;21.40;45.20;;;;;;500110;237;1184;-44
2021/06/04 00:11:12;;;;;;;;;;;21.40;45.20;;;;;;500353;237;1411;-44
2021/06/04 00:13:13;;;;;;;;;;;21.40;45.10;;;;;;500341;237;1289;-44
2021/06/04 00:15:15;;;;;;;;;;;21.50;45.10;;;;;;500222;237;1134;-44
2021/06/04 00:17:16;;;;;;;;;;;21.50;45.10;;;;;;500190;237;1396;-44
2021/06/04 00:19:17;;;;;;;;;;;21.50;45.10;;;;;;500142;237;1157;-44
2021/06/04 00:21:19;;;;;;;;;;;21.50;45.10;;;;;;500328;237;2183;-44
2021/06/04 00:23:20;;;;;;;;;;;21.50;45.10;;;;;;500388;237;1070;-44
2021/06/04 00:25:21;;;;;;;;;;;21.50;45.10;;;;;;500129;237;1049;-44
2021/06/04 00:27:23;;;;;;;;;;;21.50;45.10;;;;;;500252;237;1537;-44
2021/06/04 00:29:24;;;;;;;;;;;21.50;45.00;;;;;;500604;237;1064;-44
2021/06/04 00:31:25;;;;;;;;;;;21.50;45.00;;;;;;500260;237;1248;-44
2021/06/04 00:33:26;;;;;;;;;;;21.60;45.00;;;;;;500260;237;1200;-44
2021/06/04 00:35:28;;;;;;;;;;;21.60;44.90;;;;;;500093;237;1184;-44
2021/06/04 00:37:29;;;;;;;;;;;21.60;44.90;;;;;;500501;237;1094;-44
2021/06/04 00:39:30;;;;;;;;;;;21.60;44.80;;;;;;500129;237;1039;-44
2021/06/04 00:41:31;;;;;;;;;;;21.70;44.90;;;;;;500105;237;2187;-44
2021/06/04 00:43:33;;;;;;;;;;;21.60;44.80;;;;;;500491;237;1105;-44
2021/06/04 00:45:34;;;;;;;;;;;21.70;45.00;;;;;;500095;237;1089;-44
2021/06/04 00:47:35;;;;;;;;;;;21.80;44.70;;;;;;500335;237;1111;-44
2021/06/04 00:49:37;;;;;;;;;;;21.50;45.10;;;;;;500158;237;1226;-44
2021/06/04 00:51:38;;;;;;;;;;;20.90;46.30;;;;;;500320;237;1115;-44
2021/06/04 00:53:39;;;;;;;;;;;20.50;47.50;;;;;;500161;237;1176;-44
2021/06/04 00:55:40;;;;;;;;;;;20.20;48.40;;;;;;500390;237;1084;-44
2021/06/04 00:57:42;;;;;;;;;;;19.90;49.10;;;;;;500129;237;1104;-46
2021/06/04 00:59:43;;;;;;;;;;;19.80;49.50;;;;;;500600;237;1062;-46
2021/06/04 01:01:44;;;;;;;;;;;19.60;49.80;;;;;;500531;237;2175;-46
2021/06/04 01:03:46;;;;;;;;;;;19.50;50.00;;;;;;500100;237;1094;-46
2021/06/04 01:05:47;;;;;;;;;;;19.50;50.30;;;;;;500152;237;1379;-46
2021/06/04 01:07:48;;;;;;;;;;;19.40;50.50;;;;;;500106;237;1494;-46
2021/06/04 01:09:49;;;;;;;;;;;19.30;50.70;;;;;;500102;237;1099;-46
2021/06/04 01:11:51;;;;;;;;;;;19.30;50.80;;;;;;500164;237;1509;-46
2021/06/04 01:13:53;;;;;;;;;;;19.20;50.90;;;;;;500085;237;1076;-46
2021/06/04 01:15:53;;;;;;;;;;;19.20;50.90;;;;;;500101;237;2061;-45
2021/06/04 01:17:54;;;;;;;;;;;19.20;51.00;;;;;;500099;237;1187;-45
2021/06/04 01:19:56;;;;;;;;;;;19.10;51.10;;;;;;500325;237;1271;-46
2021/06/04 01:21:57;;;;;;;;;;;19.10;51.30;;;;;;500030;237;2192;-46
2021/06/04 01:23:58;;;;;;;;;;;19.00;51.30;;;;;;500098;237;1113;-45
2021/06/04 01:26:00;;;;;;;;;;;19.00;51.50;;;;;;500209;237;1056;-46
2021/06/04 01:28:01;;;;;;;;;;;19.00;51.40;;;;;;500099;237;1026;-46
2021/06/04 01:30:03;;;;;;;;;;;19.00;51.40;;;;;;500590;237;1113;-46
2021/06/04 01:32:04;;;;;;;;;;;19.00;51.50;;;;;;500149;237;1133;-46
2021/06/04 01:34:05;;;;;;;;;;;18.90;51.50;;;;;;500467;237;1174;-46
2021/06/04 01:36:06;;;;;;;;;;;18.90;51.60;;;;;;500240;237;1224;-46
2021/06/04 01:38:08;;;;;;;;;;;18.90;51.70;;;;;;500189;237;1049;-46
2021/06/04 01:40:09;;;;;;;;;;;18.90;51.70;;;;;;500118;237;1246;-46
2021/06/04 01:42:10;;;;;;;;;;;18.90;51.80;;;;;;500317;237;2177;-46
2021/06/04 01:44:12;;;;;;;;;;;18.90;51.80;;;;;;500350;237;1069;-45
2021/06/04 01:46:13;;;;;;;;;;;18.80;51.80;;;;;;500134;237;1073;-46
2021/06/04 01:48:14;;;;;;;;;;;18.80;51.80;;;;;;500143;237;1095;-44
2021/06/04 01:50:15;;;;;;;;;;;18.80;51.80;;;;;;500122;234;1298;-46
2021/06/04 01:52:17;;;;;;;;;;;18.80;51.90;;;;;;500424;237;1087;-46
2021/06/04 01:54:18;;;;;;;;;;;18.80;51.90;;;;;;500391;237;1164;-46
2021/06/04 01:56:19;;;;;;;;;;;18.70;52.00;;;;;;500559;237;1085;-46
2021/06/04 01:58:21;;;;;;;;;;;18.70;51.90;;;;;;500323;237;1241;-46
2021/06/04 02:00:22;;;;;;;;;;;18.70;52.00;;;;;;500360;237;1072;-46
2021/06/04 02:02:23;;;;;;;;;;;18.70;52.00;;;;;;500438;237;2195;-46
2021/06/04 02:04:24;;;;;;;;;;;18.70;52.00;;;;;;500088;237;1066;-46
2021/06/04 02:06:26;;;;;;;;;;;18.70;52.10;;;;;;500227;237;1153;-46
2021/06/04 02:08:27;;;;;;;;;;;18.70;52.20;;;;;;500185;237;1108;-46
2021/06/04 02:10:28;;;;;;;;;;;18.60;52.20;;;;;;500197;237;1050;-46
2021/06/04 02:12:29;;;;;;;;;;;18.70;52.20;;;;;;500131;237;1336;-46
2021/06/04 02:14:31;;;;;;;;;;;18.60;52.20;;;;;;500303;237;1035;-46
2021/06/04 02:16:32;;;;;;;;;;;18.60;52.20;;;;;;500295;237;1067;-45
2021/06/04 02:18:34;;;;;;;;;;;18.60;52.20;;;;;;500230;237;1081;-46
2021/06/04 02:20:35;;;;;;;;;;;18.60;52.20;;;;;;500211;237;1297;-46
2021/06/04 02:22:36;;;;;;;;;;;18.50;52.20;;;;;;500391;237;2187;-46
2021/06/04 02:24:38;;;;;;;;;;;18.60;52.30;;;;;;500121;237;1127;-46
2021/06/04 02:26:39;;;;;;;;;;;18.60;52.20;;;;;;500132;237;1091;-46
2021/06/04 02:28:40;;;;;;;;;;;18.60;52.30;;;;;;500115;237;1195;-46
2021/06/04 02:30:42;;;;;;;;;;;18.50;52.30;;;;;;500274;237;1215;-46
2021/06/04 02:32:43;;;;;;;;;;;18.50;52.30;;;;;;500085;237;1126;-46
2021/06/04 02:34:44;;;;;;;;;;;18.50;52.30;;;;;;500366;237;1224;-46
2021/06/04 02:36:46;;;;;;;;;;;18.50;52.40;;;;;;500170;237;1222;-46
2021/06/04 02:38:47;;;;;;;;;;;18.50;52.40;;;;;;500374;237;1055;-46
2021/06/04 02:40:49;;;;;;;;;;;18.40;52.40;;;;;;500088;237;1382;-46
2021/06/04 02:42:50;;;;;;;;;;;18.50;52.50;;;;;;500268;237;2120;-46
2021/06/04 02:44:51;;;;;;;;;;;18.80;51.90;;;;;;500196;237;1365;-46
2021/06/04 02:46:53;;;;;;;;;;;19.20;50.60;;;;;;500042;237;1158;-46
2021/06/04 02:48:54;;;;;;;;;;;19.50;49.60;;;;;;500221;237;1050;-46
2021/06/04 02:50:55;;;;;;;;;;;19.80;49.00;;;;;;500296;237;1301;-46
2021/06/04 02:52:56;;;;;;;;;;;20.00;48.40;;;;;;500561;237;1201;-46
2021/06/04 02:54:58;;;;;;;;;;;20.20;48.10;;;;;;500247;237;1236;-46
2021/06/04 02:56:59;;;;;;;;;;;20.30;47.70;;;;;;500283;237;1502;-46
2021/06/04 02:59:01;;;;;;;;;;;20.40;47.50;;;;;;500517;237;1232;-46
2021/06/04 03:01:02;;;;;;;;;;;20.40;47.20;;;;;;500225;237;1082;-46
2021/06/04 03:03:03;;;;;;;;;;;20.50;47.10;;;;;;500120;237;2180;-46
2021/06/04 03:05:05;;;;;;;;;;;20.60;46.90;;;;;;500304;237;1086;-46
2021/06/04 03:07:06;;;;;;;;;;;20.60;46.70;;;;;;500212;237;1246;-46
2021/06/04 03:09:07;;;;;;;;;;;20.70;46.60;;;;;;500579;237;1203;-46
2021/06/04 03:11:08;;;;;;;;;;;20.70;46.50;;;;;;500227;237;1200;-46
2021/06/04 03:13:10;;;;;;;;;;;20.80;46.40;;;;;;500175;237;1117;-46
2021/06/04 03:15:11;;;;;;;;;;;20.80;46.40;;;;;;500183;237;1060;-46
2021/06/04 03:17:12;;;;;;;;;;;20.90;46.30;;;;;;500102;237;1080;-46
2021/06/04 03:19:14;;;;;;;;;;;20.90;46.20;;;;;;500203;237;1033;-46
2021/06/04 03:21:15;;;;;;;;;;;20.90;46.10;;;;;;500255;237;1123;-46
2021/06/04 03:23:16;;;;;;;;;;;20.90;46.00;;;;;;500103;237;2100;-46
2021/06/04 03:25:17;;;;;;;;;;;21.00;46.00;;;;;;500090;237;1051;-46
2021/06/04 03:27:19;;;;;;;;;;;21.00;46.00;;;;;;500120;237;1154;-46
2021/06/04 03:29:20;;;;;;;;;;;21.00;46.00;;;;;;500345;237;1078;-46
2021/06/04 03:31:22;;;;;;;;;;;21.00;45.90;;;;;;500224;237;1071;-46
2021/06/04 03:33:23;;;;;;;;;;;21.10;45.90;;;;;;500591;237;1063;-46
2021/06/04 03:35:24;;;;;;;;;;;21.10;45.80;;;;;;500342;237;1051;-46
2021/06/04 03:37:26;;;;;;;;;;;21.20;45.80;;;;;;500123;237;1556;-46
2021/06/04 03:39:27;;;;;;;;;;;21.20;45.70;;;;;;500214;237;1116;-46
2021/06/04 03:41:28;;;;;;;;;;;21.20;45.70;;;;;;500078;237;2141;-46
2021/06/04 03:43:29;;;;;;;;;;;21.20;45.60;;;;;;500173;237;1065;-46
2021/06/04 03:45:31;;;;;;;;;;;21.30;45.50;;;;;;500236;237;1061;-46
2021/06/04 03:47:32;;;;;;;;;;;21.30;45.50;;;;;;500322;237;1046;-46
2021/06/04 03:49:33;;;;;;;;;;;21.30;45.50;;;;;;500208;237;1056;-45
2021/06/04 03:51:35;;;;;;;;;;;21.30;45.40;;;;;;500183;237;1169;-44
2021/06/04 03:53:36;;;;;;;;;;;21.30;45.40;;;;;;500203;237;1090;-44
2021/06/04 03:55:37;;;;;;;;;;;21.40;45.40;;;;;;500122;237;1061;-44
2021/06/04 03:57:38;;;;;;;;;;;21.40;45.30;;;;;;500124;237;1200;-44
2021/06/04 03:59:40;;;;;;;;;;;21.40;45.30;;;;;;500119;237;1032;-44
2021/06/04 04:01:41;;;;;;;;;;;21.40;45.20;;;;;;500465;237;2125;-44
2021/06/04 04:03:42;;;;;;;;;;;21.50;45.20;;;;;;500282;237;1067;-44
2021/06/04 04:05:43;;;;;;;;;;;21.50;45.20;;;;;;500275;237;1059;-44
2021/06/04 04:07:45;;;;;;;;;;;21.50;45.10;;;;;;500059;237;1244;-44
2021/06/04 04:09:46;;;;;;;;;;;21.50;45.10;;;;;;500405;237;1082;-44
2021/06/04 04:11:47;;;;;;;;;;;21.50;45.00;;;;;;500085;237;1063;-44
2021/06/04 04:13:49;;;;;;;;;;;21.60;45.00;;;;;;500287;237;1076;-44
2021/06/04 04:15:50;;;;;;;;;;;21.60;45.00;;;;;;500087;237;1052;-44
2021/06/04 04:17:52;;;;;;;;;;;21.60;44.90;;;;;;500139;237;1193;-44
2021/06/04 04:19:53;;;;;;;;;;;21.60;44.90;;;;;;500294;237;1079;-44
2021/06/04 04:21:54;;;;;;;;;;;21.70;44.90;;;;;;500037;237;2176;-44
2021/06/04 04:23:55;;;;;;;;;;;21.70;44.80;;;;;;500298;237;1204;-44
2021/06/04 04:25:57;;;;;;;;;;;21.70;44.80;;;;;;500528;237;1347;-44
2021/06/04 04:27:58;;;;;;;;;;;21.70;44.80;;;;;;500050;237;1544;-44
2021/06/04 04:29:59;;;;;;;;;;;21.70;44.80;;;;;;500101;237;1054;-44
2021/06/04 04:32:01;;;;;;;;;;;21.70;44.80;;;;;;500316;237;1581;-44
2021/06/04 04:34:02;;;;;;;;;;;21.70;44.80;;;;;;500508;237;1044;-44
2021/06/04 04:36:03;;;;;;;;;;;21.70;44.80;;;;;;500515;237;1459;-44
2021/06/04 04:38:04;;;;;;;;;;;21.80;44.80;;;;;;500094;237;1253;-44
2021/06/04 04:40:06;;;;;;;;;;;21.80;44.70;;;;;;500446;237;1060;-44
2021/06/04 04:42:07;;;;;;;;;;;21.80;44.80;;;;;;500063;237;2179;-43
2021/06/04 04:44:08;;;;;;;;;;;21.80;44.90;;;;;;500069;237;1329;-44
2021/06/04 04:46:09;;;;;;;;;;;21.80;44.70;;;;;;500445;237;1190;-44
2021/06/04 04:48:11;;;;;;;;;;;21.40;45.50;;;;;;500085;237;1171;-44
2021/06/04 04:50:12;;;;;;;;;;;20.80;46.80;;;;;;500095;237;1082;-44
2021/06/04 04:52:13;;;;;;;;;;;20.40;47.80;;;;;;500157;237;1176;-46
2021/06/04 04:54:15;;;;;;;;;;;20.10;48.70;;;;;;500272;237;1074;-46
2021/06/04 04:56:16;;;;;;;;;;;19.90;49.30;;;;;;500203;237;1525;-46
2021/06/04 04:58:18;;;;;;;;;;;19.80;49.60;;;;;;500356;237;1071;-46
2021/06/04 05:00:18;;;;;;;;;;;19.70;49.90;;;;;;500099;237;1379;-46
2021/06/04 05:02:20;;;;;;;;;;;19.60;50.20;;;;;;500305;237;2175;-46
2021/06/04 05:04:21;;;;;;;;;;;19.50;50.40;;;;;;500082;237;1107;-46
2021/06/04 05:06:22;;;;;;;;;;;19.40;50.60;;;;;;500080;237;1135;-46
2021/06/04 05:08:24;;;;;;;;;;;19.30;50.70;;;;;;500317;237;1308;-46
2021/06/04 05:10:25;;;;;;;;;;;19.30;50.90;;;;;;500128;237;1043;-46
2021/06/04 05:12:26;;;;;;;;;;;19.30;50.90;;;;;;500568;237;1191;-46
2021/06/04 05:14:27;;;;;;;;;;;19.20;51.10;;;;;;500101;237;1105;-46
2021/06/04 05:16:29;;;;;;;;;;;19.20;51.20;;;;;;500082;237;1425;-46
2021/06/04 05:18:30;;;;;;;;;;;19.10;51.30;;;;;;500100;237;1073;-46
2021/06/04 05:20:31;;;;;;;;;;;19.10;51.40;;;;;;500229;237;1071;-46
2021/06/04 05:22:33;;;;;;;;;;;19.10;51.40;;;;;;500030;237;2167;-46
2021/06/04 05:24:34;;;;;;;;;;;19.10;51.40;;;;;;500173;237;1088;-46
2021/06/04 05:26:35;;;;;;;;;;;19.00;51.50;;;;;;500267;237;1216;-46
2021/06/04 05:28:38;;;;;;;;;;;19.00;51.70;;;;;;500149;237;1039;-46
2021/06/04 05:30:38;;;;;;;;;;;19.00;51.70;;;;;;500270;237;2112;-46
2021/06/04 05:32:39;;;;;;;;;;;18.90;51.80;;;;;;500034;237;1497;-46
2021/06/04 05:34:40;;;;;;;;;;;18.90;51.80;;;;;;500278;237;1104;-46
2021/06/04 05:36:41;;;;;;;;;;;18.90;51.80;;;;;;500040;237;1166;-46
2021/06/04 05:38:43;;;;;;;;;;;18.90;51.80;;;;;;500123;237;1158;-46
2021/06/04 05:40:44;;;;;;;;;;;18.80;51.90;;;;;;500133;237;1042;-46
2021/06/04 05:42:45;;;;;;;;;;;18.80;52.00;;;;;;500040;237;2140;-46
2021/06/04 05:44:47;;;;;;;;;;;18.80;52.10;;;;;;500475;237;1327;-46
2021/06/04 05:46:48;;;;;;;;;;;18.80;52.00;;;;;;499995;237;1194;-46
2021/06/04 05:48:50;;;;;;;;;;;18.70;52.20;;;;;;500056;237;1088;-46
2021/06/04 05:50:51;;;;;;;;;;;18.70;52.20;;;;;;500037;237;1094;-46
2021/06/04 05:52:52;;;;;;;;;;;18.70;52.10;;;;;;500006;238;1086;-46
2021/06/04 05:54:54;;;;;;;;;;;18.70;52.10;;;;;;500006;237;1085;-46
2021/06/04 05:56:55;;;;;;;;;;;18.70;52.20;;;;;;499919;237;1372;-46
2021/06/04 05:58:56;;;;;;;;;;;18.70;52.30;;;;;;499998;237;1078;-46
2021/06/04 06:00:57;;;;;;;;;;;18.70;52.30;;;;;;499959;237;1132;-46
2021/06/04 06:02:59;;;;;;;;;;;18.60;52.20;;;;;;499947;237;2184;-46
2021/06/04 06:05:00;;;;;;;;;;;18.70;52.30;;;;;;500039;237;1066;-46
2021/06/04 06:07:01;;;;;;;;;;;18.60;52.20;;;;;;499898;237;1188;-46
2021/06/04 06:09:03;;;;;;;;;;;18.60;52.20;;;;;;500104;237;1163;-46
2021/06/04 06:11:04;;;;;;;;;;;18.60;52.40;;;;;;500094;237;1081;-46
2021/06/04 06:13:05;;;;;;;;;;;18.60;52.50;;;;;;500299;237;1256;-46
2021/06/04 06:15:06;;;;;;;;;;;18.60;52.40;;;;;;500229;237;1071;-46
2021/06/04 06:17:08;;;;;;;;;;;18.60;52.40;;;;;;500054;237;1354;-46
2021/06/04 06:19:09;;;;;;;;;;;18.60;52.40;;;;;;500366;237;1043;-46
2021/06/04 06:21:10;;;;;;;;;;;18.60;52.40;;;;;;499998;237;1087;-46
2021/06/04 06:23:12;;;;;;;;;;;18.50;52.50;;;;;;500033;237;2171;-46
2021/06/04 06:25:13;;;;;;;;;;;18.50;52.60;;;;;;500199;237;1198;-46
2021/06/04 06:27:14;;;;;;;;;;;18.50;52.60;;;;;;500062;237;1086;-46
2021/06/04 06:29:16;;;;;;;;;;;18.40;52.70;;;;;;500166;237;1187;-46
2021/06/04 06:31:20;;;;;;;;;;;18.50;52.70;;;;;;500324;237;1110;-46
2021/06/04 06:33:19;;;;;;;;;;;18.50;52.50;;;;;;500002;237;2269;-46
2021/06/04 06:35:20;;;;;;;;;;;18.90;51.80;;;;;;500023;237;1364;-46
2021/06/04 06:37:21;;;;;;;;;;;19.30;50.60;;;;;;499981;237;1079;-46
2021/06/04 06:39:24;;;;;;;;;;;19.60;49.60;;;;;;500094;237;1296;-46
2021/06/04 06:41:24;;;;;;;;;;;19.90;49.00;;;;;;499974;237;2034;-46
2021/06/04 06:43:25;;;;;;;;;;;20.00;48.40;;;;;;500287;237;2140;-46
2021/06/04 06:45:27;;;;;;;;;;;20.20;48.10;;;;;;500102;237;1129;-46
2021/06/04 06:47:28;;;;;;;;;;;20.30;47.70;;;;;;499996;237;2023;-46
2021/06/04 06:49:29;;;;;;;;;;;20.40;47.60;;;;;;500277;237;1048;-46
2021/06/04 06:51:33;;;;;;;;;;;20.50;47.40;;;;;;500038;237;1304;-46
2021/06/04 06:53:32;;;;;;;;;;;20.50;47.20;;;;;;500038;237;1677;-46
2021/06/04 06:55:34;;;;;;;;;;;20.60;47.10;;;;;;500051;237;1122;-46
2021/06/04 06:57:35;;;;;;;;;;;20.60;47.00;;;;;;500157;237;1162;-46
2021/06/04 06:59:37;;;;;;;;;;;20.70;46.80;;;;;;500088;237;1134;-46
2021/06/04 07:01:38;;;;;;;;;;;20.70;46.70;;;;;;500325;237;1055;-46
2021/06/04 07:03:39;;;;;;;;;;;20.80;46.60;;;;;;500203;237;2188;-46
2021/06/04 07:05:40;;;;;;;;;;;20.90;46.50;;;;;;500008;237;1089;-46
2021/06/04 07:07:42;;;;;;;;;;;20.90;46.40;;;;;;499995;237;1079;-46
2021/06/04 07:09:43;;;;;;;;;;;20.90;46.30;;;;;;500089;237;1182;-46
2021/06/04 07:11:44;;;;;;;;;;;21.00;46.20;;;;;;500045;237;1247;-46
2021/06/04 07:13:46;;;;;;;;;;;21.00;46.10;;;;;;500009;237;1098;-46
2021/06/04 07:15:47;;;;;;;;;;;21.00;46.00;;;;;;500331;237;1217;-46
2021/06/04 07:17:48;;;;;;;;;;;21.00;46.00;;;;;;500452;237;1204;-46
2021/06/04 07:19:49;;;;;;;;;;;21.10;46.00;;;;;;500151;237;1055;-46
2021/06/04 07:21:51;;;;;;;;;;;21.10;45.90;;;;;;500016;237;1302;-46
2021/06/04 07:23:52;;;;;;;;;;;21.20;45.90;;;;;;500130;237;2184;-46
2021/06/04 07:25:53;;;;;;;;;;;21.20;45.90;;;;;;499960;237;1389;-44
2021/06/04 07:27:55;;;;;;;;;;;21.20;45.80;;;;;;499968;237;1224;-44
2021/06/04 07:29:56;;;;;;;;;;;21.20;45.70;;;;;;500019;237;1165;-44
2021/06/04 07:31:57;;;;;;;;;;;21.30;45.60;;;;;;500050;237;1743;-44
2021/06/04 07:34:02;;;;;;;;;;;21.30;45.60;;;;;;500022;237;1115;-44
2021/06/04 07:36:00;;;;;;;;;;;21.30;45.60;;;;;;499857;237;2235;-44
2021/06/04 07:38:01;;;;;;;;;;;21.30;45.50;;;;;;499893;237;1161;-44
2021/06/04 07:40:02;;;;;;;;;;;21.30;45.50;;;;;;500244;237;1209;-44
2021/06/04 07:42:03;;;;;;;;;;;21.40;45.50;;;;;;500090;237;1180;-44
2021/06/04 07:44:05;;;;;;;;;;;21.40;45.50;;;;;;500101;237;2128;-44
2021/06/04 07:46:07;;;;;;;;;;;21.40;45.40;;;;;;500112;237;1225;-44
2021/06/04 07:48:07;;;;;;;;;;;21.40;45.40;;;;;;500032;237;2386;-44
2021/06/04 07:50:09;;;;;;;;;;;21.40;45.40;;;;;;500039;237;1076;-44
2021/06/04 07:52:10;;;;;;;;;;;21.40;45.40;;;;;;499965;237;1117;-44
2021/06/04 07:54:12;;;;;;;;;;;21.50;45.40;;;;;;500319;237;1164;-46
2021/06/04 07:56:16;;;;;;;;;;;21.50;45.30;;;;;;500055;237;1153;-46
2021/06/04 07:58:15;;;;;;;;;;;21.50;45.40;;;;;;500372;237;2127;-46
2021/06/04 08:00:16;;;;;;;;;;;21.50;45.30;;;;;;500212;237;1067;-46
2021/06/04 08:02:18;;;;;;;;;;;21.50;45.20;;;;;;500000;237;1250;-46
2021/06/04 08:04:19;;;;;;;;;;;21.50;45.30;;;;;;500166;237;2148;-46
2021/06/04 08:06:21;;;;;;;;;;;21.50;45.20;;;;;;500217;237;1233;-46
2021/06/04 08:08:21;;;;;;;;;;;21.50;45.20;;;;;;500099;237;1068;-46
2021/06/04 08:10:23;;;;;;;;;;;21.50;45.20;;;;;;500273;237;1298;-46
2021/06/04 08:12:30;;;;;;;;;;;21.50;45.20;;;;;;499979;237;1280;-46
2021/06/04 08:14:26;;;;;;;;;;;21.50;45.20;;;;;;500090;237;1488;-46
2021/06/04 08:16:28;;;;;;;;;;;21.50;45.20;;;;;;500152;237;1085;-46
2021/06/04 08:18:29;;;;;;;;;;;21.60;45.20;;;;;;500137;237;1067;-46
2021/06/04 08:20:30;;;;;;;;;;;21.60;45.20;;;;;;500136;237;1068;-46
2021/06/04 08:22:32;;;;;;;;;;;21.60;45.10;;;;;;500022;237;1241;-46
2021/06/04 08:24:33;;;;;;;;;;;21.60;45.10;;;;;;500026;237;2179;-46
2021/06/04 08:26:34;;;;;;;;;;;21.60;45.10;;;;;;499980;237;1141;-46
2021/06/04 08:28:36;;;;;;;;;;;21.60;45.10;;;;;;500104;237;1128;-46
2021/06/04 08:30:37;;;;;;;;;;;21.60;45.10;;;;;;500057;237;1243;-46
2021/06/04 08:32:38;;;;;;;;;;;21.70;45.10;;;;;;499989;237;1313;-44
2021/06/04 08:34:40;;;;;;;;;;;21.70;45.00;;;;;;500255;237;1076;-44
2021/06/04 08:36:41;;;;;;;;;;;21.70;45.00;;;;;;499885;237;1870;-44
2021/06/04 08:38:42;;;;;;;;;;;21.70;45.00;;;;;;500270;237;1138;-44
2021/06/04 08:40:44;;;;;;;;;;;21.80;44.90;;;;;;500043;237;1193;-44
2021/06/04 08:42:45;;;;;;;;;;;21.60;45.20;;;;;;500029;237;1077;-44
2021/06/04 08:44:46;;;;;;;;;;;21.10;46.10;;;;;;500055;237;2196;-44
2021/06/04 08:46:48;;;;;;;;;;;20.60;47.40;;;;;;500105;237;1087;-44
2021/06/04 08:48:49;;;;;;;;;;;20.30;48.40;;;;;;500063;237;1055;-46
2021/06/04 08:50:51;;;;;;;;;;;20.00;49.00;;;;;;499960;237;1079;-46
2021/06/04 08:52:52;;;;;;;;;;;19.80;49.60;;;;;;500171;237;1190;-46
2021/06/04 08:54:53;;;;;;;;;;;19.70;50.00;;;;;;500018;237;1067;-46
2021/06/04 08:56:57;;;;;;;;;;;19.60;50.30;;;;;;500060;237;1167;-46
2021/06/04 08:58:58;;;;;;;;;;;19.50;50.40;;;;;;500183;237;1125;-46
2021/06/04 09:00:59;;;;;;;;;;;19.40;50.60;;;;;;499971;237;1033;-46
2021/06/04 09:03:02;;;;;;;;;;;19.40;50.70;;;;;;499991;237;1074;-46
2021/06/04 09:05:02;;;;;;;;;;;19.30;50.90;;;;;;500126;237;2140;-46
2021/06/04 09:07:04;;;;;;;;;;;19.30;51.00;;;;;;500338;237;1113;-46
2021/06/04 09:09:05;;;;;;;;;;;19.30;51.10;;;;;;500034;237;1434;-46
2021/06/04 09:11:06;;;;;;;;;;;19.20;51.20;;;;;;500012;237;1222;-46
2021/06/04 09:13:07;;;;;;;;;;;19.20;51.20;;;;;;500134;237;1064;-46
2021/06/04 09:15:08;;;;;;;;;;;19.20;51.40;;;;;;500346;237;1077;-46
2021/06/04 09:17:10;;;;;;;;;;;19.10;51.50;;;;;;500034;237;1087;-46
2021/06/04 09:19:11;;;;;;;;;;;19.10;51.60;;;;;;500186;237;1050;-46
2021/06/04 09:21:12;;;;;;;;;;;19.00;51.60;;;;;;500074;237;1443;-46
2021/06/04 09:23:14;;;;;;;;;;;19.00;51.70;;;;;;500127;237;1157;-46
2021/06/04 09:25:15;;;;;;;;;;;19.00;51.70;;;;;;500153;237;2180;-46
2021/06/04 09:27:16;;;;;;;;;;;18.90;51.80;;;;;;499899;237;1197;-46
2021/06/04 09:29:17;;;;;;;;;;;18.90;51.90;;;;;;499962;237;1165;-46
2021/06/04 09:31:19;;;;;;;;;;;18.80;52.00;;;;;;499921;237;1504;-45
2021/06/04 09:33:20;;;;;;;;;;;18.90;52.00;;;;;;500015;237;1104;-46
2021/06/04 09:35:21;;;;;;;;;;;18.90;52.00;;;;;;500170;237;1041;-46
2021/06/04 09:37:23;;;;;;;;;;;18.80;52.00;;;;;;499954;237;1147;-46
2021/06/04 09:39:24;;;;;;;;;;;18.80;52.00;;;;;;500192;237;1086;-46
2021/06/04 09:41:25;;;;;;;;;;;18.80;52.10;;;;;;499998;237;1266;-45
2021/06/04 09:43:26;;;;;;;;;;;18.80;52.10;;;;;;500173;237;1083;-46
2021/06/04 09:45:28;;;;;;;;;;;18.80;52.20;;;;;;500044;237;2179;-46
2021/06/04 09:47:29;;;;;;;;;;;18.80;52.10;;;;;;500001;237;1121;-45
2021/06/04 09:49:30;;;;;;;;;;;18.80;52.20;;;;;;500053;237;1105;-46
2021/06/04 09:51:32;;;;;;;;;;;18.80;52.20;;;;;;500157;237;1082;-46
2021/06/04 09:53:33;;;;;;;;;;;18.70;52.20;;;;;;500389;237;1074;-46
2021/06/04 09:55:35;;;;;;;;;;;18.70;52.30;;;;;;500118;237;1101;-46
2021/06/04 09:57:36;;;;;;;;;;;18.70;52.30;;;;;;499874;237;1250;-46
2021/06/04 09:59:37;;;;;;;;;;;18.70;52.20;;;;;;500128;237;1091;-46
2021/06/04 10:01:38;;;;;;;;;;;18.70;52.30;;;;;;500229;237;1082;-45
2021/06/04 10:03:40;;;;;;;;;;;18.60;52.30;;;;;;500126;237;2191;-46
2021/06/04 10:05:41;;;;;;;;;;;18.60;52.50;;;;;;500312;237;1224;-46
2021/06/04 10:07:44;;;;;;;;;;;18.60;52.50;;;;;;499973;237;1519;-46
2021/06/04 10:09:45;;;;;;;;;;;18.60;52.60;;;;;;500102;237;1354;-46
2021/06/04 10:11:45;;;;;;;;;;;18.60;52.50;;;;;;499896;237;1741;-46
2021/06/04 10:13:47;;;;;;;;;;;18.50;52.50;;;;;;499997;237;1080;-46
2021/06/04 10:15:51;;;;;;;;;;;18.50;52.50;;;;;;499851;237;1052;-46
2021/06/04 10:18:01;;;;;;;;;;;18.50;52.40;;;;;;499996;237;2086;-46
2021/06/04 10:20:00;;;;;;;;;;;18.50;52.50;;;;;;500080;237;2102;-46
2021/06/04 10:22:01;;;;;;;;;;;18.50;52.50;;;;;;499888;237;1350;-46
2021/06/04 10:24:03;;;;;;;;;;;18.50;52.50;;;;;;499972;237;2192;-45
2021/06/04 10:26:04;;;;;;;;;;;18.50;52.50;;;;;;499932;237;1560;-46
2021/06/04 10:28:05;;;;;;;;;;;18.50;52.50;;;;;;500267;237;1102;-46
2021/06/04 10:30:06;;;;;;;;;;;18.50;52.60;;;;;;499913;237;1081;-46
2021/06/04 10:32:08;;;;;;;;;;;18.50;52.60;;;;;;500061;237;1188;-46
2021/06/04 10:34:09;;;;;;;;;;;18.50;52.50;;;;;;500397;237;1089;-46
2021/06/04 10:36:10;;;;;;;;;;;18.70;52.20;;;;;;500100;237;1329;-46
2021/06/04 10:38:12;;;;;;;;;;;19.10;51.10;;;;;;500148;237;1219;-46
2021/06/04 10:40:15;;;;;;;;;;;19.50;50.00;;;;;;500004;237;1073;-46
2021/06/04 10:42:15;;;;;;;;;;;19.70;49.30;;;;;;500046;237;1650;-46
2021/06/04 10:44:16;;;;;;;;;;;19.90;48.80;;;;;;500097;237;2195;-46
2021/06/04 10:46:18;;;;;;;;;;;20.10;48.30;;;;;;499908;237;1218;-46
2021/06/04 10:48:19;;;;;;;;;;;20.20;48.00;;;;;;499980;237;1249;-46
2021/06/04 10:50:21;;;;;;;;;;;20.30;47.70;;;;;;500103;237;1112;-46
2021/06/04 10:52:22;;;;;;;;;;;20.40;47.50;;;;;;500216;237;1187;-46
2021/06/04 10:54:23;;;;;;;;;;;20.40;47.40;;;;;;500021;237;1079;-46
2021/06/04 10:56:26;;;;;;;;;;;20.50;47.30;;;;;;500088;237;1122;-46
2021/06/04 10:58:26;;;;;;;;;;;20.60;47.20;;;;;;499814;237;2066;-46
2021/06/04 11:00:27;;;;;;;;;;;20.60;47.00;;;;;;500127;237;1228;-46
2021/06/04 11:02:28;;;;;;;;;;;20.60;46.90;;;;;;499877;237;1077;-46
2021/06/04 11:04:30;;;;;;;;;;;20.70;46.70;;;;;;499920;237;2133;-46
2021/06/04 11:06:31;;;;;;;;;;;20.80;46.60;;;;;;499987;237;1074;-46
2021/06/04 11:08:32;;;;;;;;;;;20.80;46.40;;;;;;499888;237;1063;-46
2021/06/04 11:10:33;;;;;;;;;;;20.90;46.40;;;;;;500006;237;1254;-46
2021/06/04 11:12:35;;;;;;;;;;;20.90;46.30;;;;;;499904;237;1289;-46
2021/06/04 11:14:36;;;;;;;;;;;20.90;46.20;;;;;;499898;237;1086;-46
2021/06/04 11:16:39;;;;;;;;;;;21.00;46.00;;;;;;499890;237;1393;-46
2021/06/04 11:18:39;;;;;;;;;;;21.00;46.00;;;;;;499850;237;2173;-46
2021/06/04 11:20:40;;;;;;;;;;;21.10;46.10;;;;;;500009;237;1100;-46
2021/06/04 11:22:43;;;;;;;;;;;21.10;46.10;;;;;;499913;237;1462;-46
2021/06/04 11:24:44;;;;;;;;;;;21.10;46.00;;;;;;499849;237;2152;-46
2021/06/04 11:26:45;;;;;;;;;;;21.10;45.90;;;;;;499807;237;1163;-46
2021/06/04 11:28:47;;;;;;;;;;;21.10;45.80;;;;;;499876;237;1470;-46
2021/06/04 11:30:48;;;;;;;;;;;21.20;45.80;;;;;;499866;237;1065;-46
2021/06/04 11:32:50;;;;;;;;;;;21.20;45.70;;;;;;499881;237;1194;-46
2021/06/04 11:34:52;;;;;;;;;;;21.20;45.70;;;;;;499909;237;1470;-46
2021/06/04 11:36:52;;;;;;;;;;;21.20;45.60;;;;;;499839;237;1414;-44
2021/06/04 11:38:54;;;;;;;;;;;21.30;45.60;;;;;;499964;237;1103;-44
2021/06/04 11:40:55;;;;;;;;;;;21.30;45.50;;;;;;499982;237;1159;-44
2021/06/04 11:42:56;;;;;;;;;;;21.30;45.50;;;;;;499899;237;1155;-44
2021/06/04 11:44:58;;;;;;;;;;;21.30;45.50;;;;;;500074;237;2244;-44
2021/06/04 11:46:59;;;;;;;;;;;21.40;45.50;;;;;;500138;237;1297;-44
2021/06/04 11:49:00;;;;;;;;;;;21.40;45.50;;;;;;500060;237;1071;-44
2021/06/04 11:51:01;;;;;;;;;;;21.40;45.40;;;;;;500062;237;1468;-44
2021/06/04 11:53:03;;;;;;;;;;;21.40;45.40;;;;;;500157;237;1361;-44
2021/06/04 11:55:04;;;;;;;;;;;21.40;45.30;;;;;;500132;237;1112;-44
2021/06/04 11:57:07;;;;;;;;;;;21.40;45.30;;;;;;500073;237;1317;-44